Map

Track Data

SID SEASON NUMBER BASIN SUBBASIN NAME ISO_TIME NATURE LAT LON WMO_WIND WMO_PRES WMO_AGENCY TRACK_TYPE DIST2LAND LANDFALL IFLAG USA_AGENCY USA_ATCF_ID USA_LAT USA_LON USA_RECORD USA_STATUS USA_WIND USA_PRES USA_SSHS USA_R34_NE USA_R34_SE USA_R34_SW USA_R34_NW USA_R50_NE USA_R50_SE USA_R50_SW USA_R50_NW USA_R64_NE USA_R64_SE USA_R64_SW USA_R64_NW USA_POCI USA_ROCI USA_RMW USA_EYE TOKYO_LAT TOKYO_LON TOKYO_GRADE TOKYO_WIND TOKYO_PRES TOKYO_R50_DIR TOKYO_R50_LONG TOKYO_R50_SHORT TOKYO_R30_DIR TOKYO_R30_LONG TOKYO_R30_SHORT TOKYO_LAND CMA_LAT CMA_LON CMA_CAT CMA_WIND CMA_PRES HKO_LAT HKO_LON HKO_CAT HKO_WIND HKO_PRES NEWDELHI_LAT NEWDELHI_LON NEWDELHI_GRADE NEWDELHI_WIND NEWDELHI_PRES NEWDELHI_CI NEWDELHI_DP NEWDELHI_POCI REUNION_LAT REUNION_LON REUNION_TYPE REUNION_WIND REUNION_PRES REUNION_TNUM REUNION_CI REUNION_RMW REUNION_R34_NE REUNION_R34_SE REUNION_R34_SW REUNION_R34_NW REUNION_R50_NE REUNION_R50_SE REUNION_R50_SW REUNION_R50_NW REUNION_R64_NE REUNION_R64_SE REUNION_R64_SW REUNION_R64_NW BOM_LAT BOM_LON BOM_TYPE BOM_WIND BOM_PRES BOM_TNUM BOM_CI BOM_RMW BOM_R34_NE BOM_R34_SE BOM_R34_SW BOM_R34_NW BOM_R50_NE BOM_R50_SE BOM_R50_SW BOM_R50_NW BOM_R64_NE BOM_R64_SE BOM_R64_SW BOM_R64_NW BOM_ROCI BOM_POCI BOM_EYE BOM_POS_METHOD BOM_PRES_METHOD NADI_LAT NADI_LON NADI_CAT NADI_WIND NADI_PRES WELLINGTON_LAT WELLINGTON_LON WELLINGTON_WIND WELLINGTON_PRES DS824_LAT DS824_LON DS824_STAGE DS824_WIND DS824_PRES TD9636_LAT TD9636_LON TD9636_STAGE TD9636_WIND TD9636_PRES TD9635_LAT TD9635_LON TD9635_WIND TD9635_PRES TD9635_ROCI NEUMANN_LAT NEUMANN_LON NEUMANN_CLASS NEUMANN_WIND NEUMANN_PRES MLC_LAT MLC_LON MLC_CLASS MLC_WIND MLC_PRES USA_GUST BOM_GUST BOM_GUST_PER REUNION_GUST REUNION_GUST_PER USA_SEAHGT USA_SEARAD_NE USA_SEARAD_SE USA_SEARAD_SW USA_SEARAD_NW STORM_SPEED STORM_DIR
1985281N02144 1985 98 WP MM CECIL 1985-10-08 00:00:00 NR 1.90000 144.000 main 533 533 __________O___ -1 1.90000 144.000 0 16 300
1985281N02144 1985 98 WP MM CECIL 1985-10-08 03:00:00 NR 2.29855 143.298 main 598 595 __________P___ -1 2.29855 143.298 0 16 299
1985281N02144 1985 98 WP MM CECIL 1985-10-08 06:00:00 NR 2.69757 142.577 main 616 612 __________P___ -1 2.69757 142.577 0 17 298
1985281N02144 1985 98 WP MM CECIL 1985-10-08 09:00:00 NR 3.09779 141.817 main 637 635 __________P___ -1 3.09779 141.817 0 18 297
1985281N02144 1985 98 WP MM CECIL 1985-10-08 12:00:00 NR 3.50000 141.000 main 646 642 __________O___ -1 3.50000 141.000 0 19 295
1985281N02144 1985 98 WP MM CECIL 1985-10-08 15:00:00 NR 3.90273 140.118 main 651 648 __________P___ -1 3.90273 140.118 0 20 294
1985281N02144 1985 98 WP MM CECIL 1985-10-08 18:00:00 NR 4.29542 139.218 main 670 665 __________P___ -1 4.29542 139.218 0 19 293
1985281N02144 1985 98 WP MM CECIL 1985-10-08 21:00:00 NR 4.66534 138.359 main 676 667 __________P___ -1 4.66534 138.359 0 18 294
1985281N02144 1985 98 WP MM CECIL 1985-10-09 00:00:00 NR 5.00000 137.600 main 676 672 __________O___ -1 5.00000 137.600 0 15 295
1985281N02144 1985 98 WP MM CECIL 1985-10-09 03:00:00 NR 5.27295 137.041 main 690 687 __________P___ -1 5.27295 137.041 0 11 297
1985281N02144 1985 98 WP MM CECIL 1985-10-09 06:00:00 NR 5.51392 136.582 main 703 701 __________P___ -1 5.51392 136.582 0 10 298
1985281N02144 1985 98 WP MM CECIL 1985-10-09 09:00:00 NR 5.74799 136.157 main 720 720 __________P___ -1 5.74799 136.157 0 10 299
1985281N02144 1985 98 WP MM CECIL 1985-10-09 12:00:00 NR 6.00000 135.700 main 750 750 __________O___ -1 6.00000 135.700 0 12 299
1985281N02144 1985 98 WP MM CECIL 1985-10-09 15:00:00 NR 6.32791 135.106 main 785 785 __________P___ -1 6.32791 135.106 0 14 299
1985281N02144 1985 98 WP MM CECIL 1985-10-09 18:00:00 NR 6.67266 134.473 main 797 766 __________P___ -1 6.67266 134.473 0 14 298
1985281N02144 1985 98 WP MM CECIL 1985-10-09 21:00:00 NR 7.00604 133.828 main 757 728 __________P___ -1 7.00604 133.828 0 14 296
1985281N02144 1985 98 WP MM CECIL 1985-10-10 00:00:00 NR 7.30000 133.200 main 728 673 __________O___ -1 7.30000 133.200 0 13 293
1985281N02144 1985 98 WP MM CECIL 1985-10-10 03:00:00 NR 7.51367 132.632 main 662 606 __________P___ -1 7.51367 132.632 0 12 289
1985281N02144 1985 98 WP MM CECIL 1985-10-10 06:00:00 NR 7.68697 132.084 main 606 551 __________P___ -1 7.68697 132.084 0 11 287
1985281N02144 1985 98 WP MM CECIL 1985-10-10 09:00:00 NR 7.84180 131.545 main 540 486 __________P___ -1 7.84180 131.545 0 11 286
1985281N02144 1985 98 WP MM CECIL 1985-10-10 12:00:00 NR 8.00000 131.000 main 486 433 __________O___ -1 8.00000 131.000 0 11 289
1985281N02144 1985 98 WP MM CECIL 1985-10-10 15:00:00 NR 8.19612 130.481 main 433 382 __________P___ -1 8.19612 130.481 0 11 291
1985281N02144 1985 98 WP MM CECIL 1985-10-10 18:00:00 NR 8.39880 129.947 main 372 324 __________P___ -1 8.39880 129.947 0 12 290
1985281N02144 1985 98 WP MM CECIL 1985-10-10 21:00:00 NR 8.60213 129.365 main 324 259 __________P___ -1 8.60213 129.365 0 13 288
1985281N02144 1985 98 WP MM CECIL 1985-10-11 00:00:00 NR 8.80000 128.700 main 259 188 __________O___ -1 8.80000 128.700 1 15 285
1985281N02144 1985 98 WP MM CECIL 1985-10-11 03:00:00 NR 8.97851 127.903 main 177 74 __________P___ -1 8.97851 127.903 1 18 281
1985281N02144 1985 98 WP MM CECIL 1985-10-11 06:00:00 TS 9.13368 126.883 1002 tokyo main 74 0 _OO_______P___ -1 9.20000 127.200 2 1002 0 0 0 9.00000 126.000 0 19 1002 9.15052 127.025 1 20 280
1985281N02144 1985 98 WP MM CECIL 1985-10-11 09:00:00 TS 9.32513 125.915 main 0 0 _PP_______P___ -1 9.26293 126.400 2 1002 0 0 9.39327 125.043 0 21 1002 9.32216 126.109 1 19 282
1985281N02144 1985 98 WP MM CECIL 1985-10-11 12:00:00 TS 9.53000 125.020 1002 tokyo main 49 0 _OO_______O___ -1 9.40000 125.600 2 1002 0 0 0 9.70000 124.200 1 23 1002 9.50000 125.200 1 17 284
1985281N02144 1985 98 WP MM CECIL 1985-10-11 15:00:00 TS 9.73797 124.222 main 0 0 _PP_______P___ -1 9.64961 124.788 2 1004 0 0 9.87199 123.535 1 23 1002 9.69231 124.344 1 16 284
1985281N02144 1985 98 WP MM CECIL 1985-10-11 18:00:00 TS 9.93063 123.435 1006 tokyo main 0 0 _OO_______P___ -1 9.90000 123.900 2 1006 0 0 0 10.0000 122.900 1 23 1002 9.89189 123.505 1 17 282
1985281N02144 1985 98 WP MM CECIL 1985-10-11 21:00:00 TS 10.0987 122.538 main 22 22 _PP_______P___ -1 10.0078 122.835 2 1005 0 0 10.1927 122.093 1 26 1001 10.0955 122.688 1 18 281
1985281N02144 1985 98 WP MM CECIL 1985-10-12 00:00:00 TS 10.2769 121.638 1004 tokyo main 34 34 _OOO______O___ -1 10.1000 121.800 2 1004 0 0 0 10.4000 121.300 1 29 1000 10.4000 121.300 TD 25 1004 10.3000 121.900 1 17 283
1985281N02144 1985 98 WP MM CECIL 1985-10-12 03:00:00 TS 10.4792 120.888 main 110 69 _PPP______P___ -1 10.2621 120.990 2 1003 0 0 10.6072 120.662 1 33 998 10.6002 120.700 TD 27 1003 10.5079 121.106 1 15 287
1985281N02144 1985 98 WP MM CECIL 1985-10-12 06:00:00 TS 10.6974 120.224 1002 tokyo main 59 10 OOOO______P___ jtwc_wp WP221985 10.7000 120.300 30 -1 10.5000 120.300 2 1002 0 0 0 10.8000 120.100 2 38 996 10.8000 120.100 TD 30 1002 10.7148 120.345 1 14 289
1985281N02144 1985 98 WP MM CECIL 1985-10-12 09:00:00 TS 10.9331 119.584 main 10 0 PPPP______P___ WP221985 10.9103 119.638 32 -1 10.8723 119.628 2 1000 0 0 10.9574 119.542 2 38 996 10.9999 119.500 TD 30 1001 10.9143 119.637 1 13 290
1985281N02144 1985 98 WP MM CECIL 1985-10-12 12:00:00 TS 11.1421 118.979 40 998 tokyo main 39 39 OOOO______O___ jtwc_wp WP221985 11.1000 119.000 35 0 11.2000 119.000 3 40 998 0 9 150 150 0 11.1000 119.000 2 38 996 11.2000 118.900 TD 30 1000 11.1000 119.000 2 35 12 287
1985281N02144 1985 98 WP MM CECIL 1985-10-12 15:00:00 TS 11.2863 118.379 main 108 108 PPPP______P___ WP221985 11.2574 118.412 37 0 11.2650 118.362 3 40 997 0 9 150 150 11.2425 118.435 2 38 995 11.4151 118.263 TD 32 998 11.2515 118.424 2 37 11 284
1985281N02144 1985 98 WP MM CECIL 1985-10-12 18:00:00 TS 11.4184 117.844 40 996 tokyo main 173 173 OOOO______P___ jtwc_wp WP221985 11.4000 117.900 40 0 11.3000 117.800 3 40 996 0 9 150 150 0 11.4000 117.900 2 38 994 11.6000 117.700 TS 35 997 11.3918 117.922 2 40 10 287
1985281N02144 1985 98 WP MM CECIL 1985-10-12 21:00:00 TS 11.5826 117.402 main 221 221 PPPP______P___ WP221985 11.5349 117.462 42 0 11.5424 117.348 3 45 993 0 9 150 150 11.5924 117.420 2 43 992 11.7073 117.297 TS 40 993 11.5361 117.484 2 42 9 293
1985281N02144 1985 98 WP MM CECIL 1985-10-13 00:00:00 TS 11.7600 117.040 50 990 tokyo main 270 270 OOOO______O___ jtwc_wp WP221985 11.7000 117.100 45 0 11.8000 117.000 4 50 990 0 9 150 150 0 11.8000 117.000 3 48 990 11.8000 117.000 TS 45 990 11.7000 117.100 2 45 8 298
1985281N02144 1985 98 WP MM CECIL 1985-10-13 03:00:00 TS 11.9389 116.725 main 304 304 PPPP______P___ WP221985 11.9424 116.785 50 0 11.9149 116.727 4 52 987 0 9 150 125 11.9999 116.620 3 48 987 11.9274 116.742 TS 47 987 11.9097 116.752 2 48 7 303
1985281N02144 1985 98 WP MM CECIL 1985-10-13 06:00:00 TS 12.1279 116.450 55 985 tokyo main 331 331 OOOO______P___ jtwc_wp WP221985 12.2000 116.500 55 0 12.0000 116.500 4 55 985 2 60 30 2 150 100 0 12.2000 116.300 3 48 985 12.1000 116.500 STS 50 985 12.1393 116.452 2 52 7 306
1985281N02144 1985 98 WP MM CECIL 1985-10-13 09:00:00 TS 12.3318 116.174 main 369 369 PPPP______P___ WP221985 12.4075 116.200 57 0 12.1275 116.250 4 55 985 2 80 40 2 175 100 12.4149 116.035 3 48 983 12.3350 116.208 STS 50 983 12.3743 116.176 2 56 7 307
1985281N02144 1985 98 WP MM CECIL 1985-10-13 12:00:00 TS 12.5400 115.900 55 985 tokyo main 408 408 OOOO______O___ jtwc_wp WP221985 12.6000 115.900 60 0 12.3000 116.000 4 55 985 3 100 50 3 200 100 0 12.6000 115.800 3 48 982 12.6000 115.900 STS 50 981 12.6000 115.900 2 60 7 306
1985281N02144 1985 98 WP MM CECIL 1985-10-13 15:00:00 TS 12.7360 115.614 main 446 446 PPPP______P___ WP221985 12.8000 115.592 62 0 12.5350 115.757 4 57 982 3 100 55 3 200 100 12.6850 115.542 3 53 980 12.8575 115.585 STS 52 978 12.8024 115.592 2 62 7 306
1985281N02144 1985 98 WP MM CECIL 1985-10-13 18:00:00 TS 12.9400 115.340 60 980 tokyo main 485 485 OOOO______O___ jtwc_wp WP221985 13.0000 115.300 65 1 12.8000 115.500 4 60 980 3 100 60 3 200 100 0 12.8000 115.300 3 58 978 13.1000 115.300 STS 55 975 13.0000 115.300 3 65 7 311
1985281N02144 1985 98 WP MM CECIL 1985-10-13 21:00:00 TS 13.1614 115.104 main 518 518 PPPP______P___ WP221985 13.1925 115.042 67 1 13.0425 115.215 4 60 977 3 100 60 3 200 100 13.0699 115.115 3 58 976 13.3074 115.100 STS 57 972 13.1950 115.049 3 67 7 315
1985281N02144 1985 98 WP MM CECIL 1985-10-14 00:00:00 TS 13.4000 114.860 60 975 tokyo main 547 547 OOOO______O___ jtwc_wp WP221985 13.4000 114.800 70 1 13.3000 114.900 4 60 975 3 100 60 3 200 100 0 13.4000 114.900 3 58 974 13.5000 114.900 STS 60 970 13.4000 114.800 4 70 7 314
1985281N02144 1985 98 WP MM CECIL 1985-10-14 03:00:00 TS 13.6582 114.571 main 559 529 PPPP______P___ WP221985 13.6424 114.572 72 1 13.6000 114.558 4 65 972 3 112 67 3 225 125 13.7150 114.580 3 63 971 13.7000 114.622 STS 62 970 13.6336 114.521 4 72 8 311
1985281N02144 1985 98 WP MM CECIL 1985-10-14 06:00:00 TS 13.9172 114.243 70 970 tokyo main 520 494 OOOO______P___ jtwc_wp WP221985 13.9000 114.300 75 1 13.9000 114.200 5 70 970 3 125 75 3 250 150 0 14.0000 114.200 4 68 968 13.9000 114.300 T 65 970 13.8861 114.215 4 75 8 306
1985281N02144 1985 98 WP MM CECIL 1985-10-14 09:00:00 TS 14.1521 113.883 main 497 456 PPPP______P___ WP221985 14.1575 113.923 77 1 14.1499 113.850 5 75 967 3 125 75 3 250 150 14.2150 113.800 4 68 965 14.0924 113.965 T 65 967 14.1455 113.876 4 77 9 303
1985281N02144 1985 98 WP MM CECIL 1985-10-14 12:00:00 TS 14.3800 113.500 80 965 tokyo main 456 425 OOOO______O___ jtwc_wp WP221985 14.4000 113.500 80 1 14.4000 113.500 5 80 965 3 125 75 3 250 150 0 14.4000 113.400 4 68 963 14.3000 113.600 T 65 965 14.4000 113.500 4 80 9 302
1985281N02144 1985 98 WP MM CECIL 1985-10-14 15:00:00 TS 14.6093 113.140 main 417 390 PPPP______P___ WP221985 14.5998 113.115 82 1 14.6998 113.180 5 80 965 3 125 75 3 250 150 14.5848 113.072 4 72 963 14.5424 113.222 T 65 965 14.6197 113.110 4 83 9 302
1985281N02144 1985 98 WP MM CECIL 1985-10-14 18:00:00 TS 14.8469 112.736 80 965 tokyo main 380 346 OOOO______P___ jtwc_wp WP221985 14.8000 112.700 85 2 15.0000 112.800 5 80 965 3 125 75 3 250 150 0 14.8000 112.700 4 77 963 14.8000 112.800 T 65 965 14.8345 112.682 4 87 10 299
1985281N02144 1985 98 WP MM CECIL 1985-10-14 21:00:00 TS 15.0984 112.242 main 336 287 PPPP______P___ WP221985 15.0349 112.222 90 2 15.2651 112.280 5 80 965 3 125 75 3 250 150 15.0926 112.173 4 77 963 15.0424 112.322 T 67 965 15.0570 112.213 4 91 11 297
1985281N02144 1985 98 WP MM CECIL 1985-10-15 00:00:00 TS 15.3600 111.700 80 965 tokyo main 290 246 OOOO______O___ jtwc_wp WP221985 15.3000 111.700 95 2 15.5000 111.700 5 80 965 3 125 75 3 250 150 0 15.4000 111.600 4 77 963 15.3000 111.800 T 70 965 15.3000 111.700 4 95 12 297
1985281N02144 1985 98 WP MM CECIL 1985-10-15 03:00:00 TS 15.6237 111.171 main 246 198 PPPP______P___ WP221985 15.5923 111.172 97 3 15.6998 111.157 5 80 965 3 125 75 3 250 150 15.6348 111.100 4 77 961 15.5848 111.272 T 75 962 15.6067 111.152 4 96 12 298
1985281N02144 1985 98 WP MM CECIL 1985-10-15 06:00:00 TS 15.9060 110.612 80 965 tokyo main 198 162 OOOO______P___ jtwc_wp WP221985 15.9000 110.600 100 3 15.9000 110.600 5 80 965 3 125 75 3 250 150 0 15.9000 110.600 4 77 960 15.9000 110.700 T 80 960 15.9298 110.561 4 97 13 299
1985281N02144 1985 98 WP MM CECIL 1985-10-15 09:00:00 TS 16.2395 110.013 main 162 130 PPPP______P___ WP221985 16.2224 109.965 100 3 16.1423 110.015 5 80 962 3 125 75 3 250 150 16.3222 110.080 4 82 960 16.2724 110.065 T 80 960 16.2379 109.939 4 98 13 298
1985281N02144 1985 98 WP MM CECIL 1985-10-15 12:00:00 TS 16.5400 109.380 80 960 tokyo main 130 93 OOOO______O___ jtwc_wp WP221985 16.5000 109.300 100 3 16.4000 109.400 5 80 960 3 125 75 3 250 150 0 16.7000 109.500 5 87 960 16.6000 109.400 T 80 960 16.5000 109.300 4 100 13 292
1985281N02144 1985 98 WP MM CECIL 1985-10-15 15:00:00 TS 16.7336 108.729 main 85 61 PPPP______P___ WP221985 16.6798 108.650 100 3 16.6648 108.765 5 80 962 3 125 75 3 250 125 16.8450 108.822 5 82 960 16.7873 108.750 T 80 960 16.6912 108.660 4 97 13 284
1985281N02144 1985 98 WP MM CECIL 1985-10-15 18:00:00 TS 16.8664 108.061 80 965 tokyo main 62 24 OOOO______P___ jtwc_wp WP221985 16.8000 108.000 100 3 16.9000 108.100 5 80 965 2 125 75 2 250 100 0 16.9000 108.100 4 77 960 16.9000 108.100 T 80 960 16.8321 108.007 4 95 13 281
1985281N02144 1985 98 WP MM CECIL 1985-10-15 21:00:00 TS 16.9882 107.395 main 24 0 PPPP______P___ WP221985 16.9223 107.350 95 2 17.0648 107.407 5 75 967 2 112 62 2 225 100 17.0070 107.422 4 72 965 17.0149 107.442 T 77 962 16.9318 107.351 4 92 13 279
1985281N02144 1985 98 WP MM CECIL 1985-10-16 00:00:00 TS 17.0800 106.720 70 970 tokyo main 0 0 OOOO______O___ jtwc_wp WP221985 17.0000 106.700 90 2 17.2000 106.700 5 70 970 2 100 50 2 200 100 0 17.1000 106.700 4 68 970 17.1000 106.800 T 75 965 17.0000 106.700 4 90 13 276
1985281N02144 1985 98 WP MM CECIL 1985-10-16 03:00:00 TS 17.1331 106.022 main 0 0 PPPP______P___ WP221985 17.0074 106.042 70 1 17.3573 105.993 5 60 977 2 2 150 100 17.1280 105.812 4 58 977 17.1272 106.200 T 62 977 17.0454 106.062 4 75 13 276
1985281N02144 1985 98 WP MM CECIL 1985-10-16 06:00:00 TS 17.2130 105.324 50 985 tokyo main 0 0 OOOO______P___ jtwc_wp WP221985 17.0000 105.400 50 0 17.5000 105.300 4 50 985 0 9 100 100 0 17.2000 105.000 3 48 985 17.2000 105.600 STS 50 990 17.0738 105.435 4 60 13 281
1985281N02144 1985 98 WP MM CECIL 1985-10-16 09:00:00 TS 17.3800 104.718 main 0 0 PPPP______P___ WP221985 17.0353 104.790 40 0 17.6296 104.650 4 991 0 9 17.4335 104.580 3 43 987 17.4080 104.963 STS 40 995 17.0903 104.816 4 45 12 287
1985281N02144 1985 98 WP MM CECIL 1985-10-16 12:00:00 TS 17.5800 104.100 998 tokyo main 0 0 OOOO______O___ jtwc_wp WP221985 17.1000 104.200 30 -1 17.7000 104.000 2 998 0 0 0 17.7000 104.100 2 38 990 17.7000 104.300 TD 30 1000 17.1000 104.200 1 30 14 285
1985281N02144 1985 98 WP MM CECIL 1985-10-16 15:00:00 TS 17.7423 103.278 main 0 0 _PP___________ WP221985 -1 17.6722 103.322 2 999 0 0 17.8825 103.190 2 30 995 TD 1 15 274
1985281N02144 1985 98 WP MM CECIL 1985-10-16 18:00:00 TS 17.6800 102.480 1000 tokyo main 0 0 _OO___________ -1 17.6000 102.600 2 1000 0 0 0 18.0000 102.000 1 23 1000 1 15 261
1985281N02144 1985 98 WP MM CECIL 1985-10-16 21:00:00 TS 17.5053 101.770 main 0 0 _P____________ -1 17.5053 101.770 2 1002 0 0 1 1 14 263
1985281N02144 1985 98 WP MM CECIL 1985-10-17 00:00:00 TS 17.5000 101.000 1004 tokyo main 0 0 _O____________ -1 17.5000 101.000 2 1004 0 0 0 12 281
1985281N02144 1985 98 WP MM CECIL 1985-10-17 03:00:00 TS 17.7412 100.530 main 0 0 _P____________ -1 17.7412 100.530 2 1004 0 0 11 298
1985281N02144 1985 98 WP MM CECIL 1985-10-17 06:00:00 TS 18.0000 100.000 1004 tokyo main 0 0 _O____________ -1 18.0000 100.000 2 1004 0 0 0 14 284
1985281N02144 1985 98 NI BB CECIL 1985-10-17 09:00:00 TS 18.0671 99.1144 main 0 0 _P____________ -1 18.0671 99.1144 2 1004 0 0 19 270
1985281N02144 1985 98 NI BB CECIL 1985-10-17 12:00:00 TS 18.0000 98.0000 main 0 _O____________ -1 18.0000 98.0000 2 1004 0 0 0 21 266

Digital Typhoon Data and Search

About IBTrACS Database

This database is a web-friendly format of International Best Track Archive for Climate Stewardship (IBTrACS), a global best track data archive curated by NOAA dating back to 1842.

Updated: 2021-10-08